sensor_id;sensor_type;location;lat;lon;timestamp;pressure;altitude;pressure_sealevel;temperature;humidity
84528;BME280;74768;51.152;6.196;2024-01-27T00:02:17;102821.97;;;0.67;97.69
84528;BME280;74768;51.152;6.196;2024-01-27T00:04:42;102826.16;;;0.62;97.52
84528;BME280;74768;51.152;6.196;2024-01-27T00:07:07;102829.50;;;0.59;97.83
84528;BME280;74768;51.152;6.196;2024-01-27T00:09:32;102822.91;;;0.69;98.19
84528;BME280;74768;51.152;6.196;2024-01-27T00:11:58;102819.81;;;0.81;97.89
84528;BME280;74768;51.152;6.196;2024-01-27T00:14:23;102825.78;;;0.76;98.38
84528;BME280;74768;51.152;6.196;2024-01-27T00:16:48;102820.44;;;0.73;97.78
84528;BME280;74768;51.152;6.196;2024-01-27T00:19:13;102834.81;;;0.62;98.12
84528;BME280;74768;51.152;6.196;2024-01-27T00:21:39;102827.53;;;0.52;97.99
84528;BME280;74768;51.152;6.196;2024-01-27T00:24:04;102839.44;;;0.46;97.91
84528;BME280;74768;51.152;6.196;2024-01-27T00:26:30;102840.69;;;0.57;98.12
84528;BME280;74768;51.152;6.196;2024-01-27T00:28:55;102849.25;;;0.54;97.75
84528;BME280;74768;51.152;6.196;2024-01-27T00:31:20;102841.53;;;0.56;97.94
84528;BME280;74768;51.152;6.196;2024-01-27T00:33:46;102844.13;;;0.56;97.99
84528;BME280;74768;51.152;6.196;2024-01-27T00:36:11;102842.47;;;0.58;98.28
84528;BME280;74768;51.152;6.196;2024-01-27T00:38:37;102839.56;;;0.49;98.40
84528;BME280;74768;51.152;6.196;2024-01-27T00:41:02;102844.56;;;0.43;98.28
84528;BME280;74768;51.152;6.196;2024-01-27T00:43:27;102846.75;;;0.32;98.36
84528;BME280;74768;51.152;6.196;2024-01-27T00:45:52;102845.81;;;0.30;98.39
84528;BME280;74768;51.152;6.196;2024-01-27T00:48:18;102845.53;;;0.46;98.61
84528;BME280;74768;51.152;6.196;2024-01-27T00:50:44;102844.13;;;0.56;98.47
84528;BME280;74768;51.152;6.196;2024-01-27T00:53:09;102848.28;;;0.51;98.34
84528;BME280;74768;51.152;6.196;2024-01-27T00:55:34;102859.53;;;0.51;98.17
84528;BME280;74768;51.152;6.196;2024-01-27T00:58:00;102860.16;;;0.44;98.25
84528;BME280;74768;51.152;6.196;2024-01-27T01:00:25;102857.28;;;0.35;97.90
84528;BME280;74768;51.152;6.196;2024-01-27T01:02:50;102855.38;;;0.31;98.08
84528;BME280;74768;51.152;6.196;2024-01-27T01:05:16;102849.91;;;0.23;97.93
84528;BME280;74768;51.152;6.196;2024-01-27T01:07:41;102863.78;;;0.24;98.16
84528;BME280;74768;51.152;6.196;2024-01-27T01:10:07;102866.16;;;0.18;98.11
84528;BME280;74768;51.152;6.196;2024-01-27T01:12:32;102855.63;;;0.13;98.09
84528;BME280;74768;51.152;6.196;2024-01-27T01:14:58;102860.22;;;0.20;98.49
84528;BME280;74768;51.152;6.196;2024-01-27T01:17:23;102860.50;;;0.29;98.19
84528;BME280;74768;51.152;6.196;2024-01-27T01:19:48;102863.09;;;0.29;98.47
84528;BME280;74768;51.152;6.196;2024-01-27T01:22:14;102860.97;;;0.18;98.34
84528;BME280;74768;51.152;6.196;2024-01-27T01:24:39;102864.66;;;0.24;98.36
84528;BME280;74768;51.152;6.196;2024-01-27T01:27:04;102868.63;;;0.15;98.28
84528;BME280;74768;51.152;6.196;2024-01-27T01:29:31;102869.69;;;-0.04;98.41
84528;BME280;74768;51.152;6.196;2024-01-27T01:31:56;102867.22;;;-0.01;98.77
84528;BME280;74768;51.152;6.196;2024-01-27T01:34:21;102875.63;;;-0.08;97.89
84528;BME280;74768;51.152;6.196;2024-01-27T01:36:47;102870.16;;;-0.14;98.07
84528;BME280;74768;51.152;6.196;2024-01-27T01:39:13;102871.50;;;-0.25;98.47
84528;BME280;74768;51.152;6.196;2024-01-27T01:41:39;102867.56;;;-0.14;98.47
84528;BME280;74768;51.152;6.196;2024-01-27T01:44:04;102871.25;;;-0.09;98.94
84528;BME280;74768;51.152;6.196;2024-01-27T01:46:30;102878.03;;;-0.13;98.18
84528;BME280;74768;51.152;6.196;2024-01-27T01:48:55;102879.56;;;-0.18;98.45
84528;BME280;74768;51.152;6.196;2024-01-27T01:51:22;102881.22;;;-0.20;98.91
84528;BME280;74768;51.152;6.196;2024-01-27T01:53:48;102876.41;;;-0.33;98.61
84528;BME280;74768;51.152;6.196;2024-01-27T01:56:16;102877.41;;;-0.29;98.89
84528;BME280;74768;51.152;6.196;2024-01-27T01:58:42;102873.81;;;-0.33;98.65
84528;BME280;74768;51.152;6.196;2024-01-27T02:01:07;102868.56;;;-0.34;98.92
84528;BME280;74768;51.152;6.196;2024-01-27T02:03:32;102870.69;;;-0.24;98.56
84528;BME280;74768;51.152;6.196;2024-01-27T02:05:58;102878.81;;;-0.15;99.11
84528;BME280;74768;51.152;6.196;2024-01-27T02:08:23;102879.22;;;-0.27;98.45
84528;BME280;74768;51.152;6.196;2024-01-27T02:10:48;102874.47;;;-0.38;98.53
84528;BME280;74768;51.152;6.196;2024-01-27T02:13:18;102872.16;;;-0.53;98.44
84528;BME280;74768;51.152;6.196;2024-01-27T02:15:44;102876.63;;;-0.49;98.69
84528;BME280;74768;51.152;6.196;2024-01-27T02:18:09;102880.25;;;-0.46;98.68
84528;BME280;74768;51.152;6.196;2024-01-27T02:20:35;102881.28;;;-0.41;99.33
84528;BME280;74768;51.152;6.196;2024-01-27T02:23:00;102872.69;;;-0.40;98.88
84528;BME280;74768;51.152;6.196;2024-01-27T02:25:29;102873.06;;;-0.29;99.04
84528;BME280;74768;51.152;6.196;2024-01-27T02:27:55;102873.03;;;-0.30;98.27
84528;BME280;74768;51.152;6.196;2024-01-27T02:30:20;102880.56;;;-0.36;98.36
84528;BME280;74768;51.152;6.196;2024-01-27T02:32:45;102866.69;;;-0.38;98.45
84528;BME280;74768;51.152;6.196;2024-01-27T02:35:10;102866.75;;;-0.37;98.82
84528;BME280;74768;51.152;6.196;2024-01-27T02:37:36;102865.38;;;-0.50;98.39
84528;BME280;74768;51.152;6.196;2024-01-27T02:40:01;102876.34;;;-0.57;99.07
84528;BME280;74768;51.152;6.196;2024-01-27T02:42:26;102866.78;;;-0.58;98.84
84528;BME280;74768;51.152;6.196;2024-01-27T02:44:52;102882.47;;;-0.55;98.52
84528;BME280;74768;51.152;6.196;2024-01-27T02:47:17;102877.13;;;-0.59;98.67
84528;BME280;74768;51.152;6.196;2024-01-27T02:49:42;102886.31;;;-0.67;98.92
84528;BME280;74768;51.152;6.196;2024-01-27T02:52:07;102884.59;;;-0.67;99.49
84528;BME280;74768;51.152;6.196;2024-01-27T02:54:34;102891.66;;;-0.63;98.79
84528;BME280;74768;51.152;6.196;2024-01-27T02:56:59;102891.56;;;-0.66;98.62
84528;BME280;74768;51.152;6.196;2024-01-27T02:59:24;102890.09;;;-0.59;99.27
84528;BME280;74768;51.152;6.196;2024-01-27T03:01:50;102884.75;;;-0.62;98.93
84528;BME280;74768;51.152;6.196;2024-01-27T03:04:15;102890.66;;;-0.66;99.33
84528;BME280;74768;51.152;6.196;2024-01-27T03:06:40;102885.28;;;-0.71;99.20
84528;BME280;74768;51.152;6.196;2024-01-27T03:09:05;102888.81;;;-0.69;99.39
84528;BME280;74768;51.152;6.196;2024-01-27T03:11:31;102886.31;;;-0.67;99.62
84528;BME280;74768;51.152;6.196;2024-01-27T03:13:56;102876.53;;;-0.73;99.23
84528;BME280;74768;51.152;6.196;2024-01-27T03:16:21;102880.56;;;-0.81;99.64
84528;BME280;74768;51.152;6.196;2024-01-27T03:18:47;102888.38;;;-0.80;98.51
84528;BME280;74768;51.152;6.196;2024-01-27T03:21:12;102887.63;;;-0.77;98.60
84528;BME280;74768;51.152;6.196;2024-01-27T03:23:37;102876.44;;;-0.76;99.17
84528;BME280;74768;51.152;6.196;2024-01-27T03:26:03;102868.44;;;-0.82;98.81
84528;BME280;74768;51.152;6.196;2024-01-27T03:28:29;102886.25;;;-0.90;99.42
84528;BME280;74768;51.152;6.196;2024-01-27T03:30:55;102878.50;;;-0.90;99.31
84528;BME280;74768;51.152;6.196;2024-01-27T03:33:20;102879.78;;;-0.79;99.32
84528;BME280;74768;51.152;6.196;2024-01-27T03:35:47;102880.66;;;-0.78;98.99
84528;BME280;74768;51.152;6.196;2024-01-27T03:38:13;102872.59;;;-0.86;99.39
84528;BME280;74768;51.152;6.196;2024-01-27T03:40:38;102881.81;;;-0.92;98.95
84528;BME280;74768;51.152;6.196;2024-01-27T03:43:03;102876.31;;;-0.79;99.54
84528;BME280;74768;51.152;6.196;2024-01-27T03:45:28;102875.31;;;-0.83;99.72
84528;BME280;74768;51.152;6.196;2024-01-27T03:47:54;102888.97;;;-0.87;99.65
84528;BME280;74768;51.152;6.196;2024-01-27T03:50:19;102885.47;;;-0.87;99.24
84528;BME280;74768;51.152;6.196;2024-01-27T03:52:44;102887.75;;;-0.95;99.37
84528;BME280;74768;51.152;6.196;2024-01-27T03:55:10;102888.66;;;-0.94;98.93
84528;BME280;74768;51.152;6.196;2024-01-27T03:57:35;102888.47;;;-0.99;99.74
84528;BME280;74768;51.152;6.196;2024-01-27T04:00:01;102878.59;;;-0.87;99.16
84528;BME280;74768;51.152;6.196;2024-01-27T04:02:26;102896.00;;;-0.84;99.22
84528;BME280;74768;51.152;6.196;2024-01-27T04:04:51;102892.34;;;-0.89;99.06
84528;BME280;74768;51.152;6.196;2024-01-27T04:07:16;102899.91;;;-0.94;99.33
84528;BME280;74768;51.152;6.196;2024-01-27T04:09:42;102896.50;;;-0.93;98.80
84528;BME280;74768;51.152;6.196;2024-01-27T04:12:07;102895.50;;;-0.96;98.65
84528;BME280;74768;51.152;6.196;2024-01-27T04:14:32;102906.22;;;-1.08;99.33
84528;BME280;74768;51.152;6.196;2024-01-27T04:16:58;102909.84;;;-1.04;98.92
84528;BME280;74768;51.152;6.196;2024-01-27T04:19:23;102919.19;;;-1.08;98.58
84528;BME280;74768;51.152;6.196;2024-01-27T04:21:48;102917.31;;;-1.12;98.69
84528;BME280;74768;51.152;6.196;2024-01-27T04:24:14;102923.38;;;-1.11;98.62
84528;BME280;74768;51.152;6.196;2024-01-27T04:26:39;102916.22;;;-1.17;99.31
84528;BME280;74768;51.152;6.196;2024-01-27T04:29:05;102914.88;;;-1.07;99.01
84528;BME280;74768;51.152;6.196;2024-01-27T04:31:30;102912.81;;;-0.95;99.16
84528;BME280;74768;51.152;6.196;2024-01-27T04:33:58;102922.31;;;-0.96;98.67
84528;BME280;74768;51.152;6.196;2024-01-27T04:36:29;102910.28;;;-0.94;98.35
84528;BME280;74768;51.152;6.196;2024-01-27T04:38:55;102914.22;;;-1.03;99.00
84528;BME280;74768;51.152;6.196;2024-01-27T04:41:20;102906.16;;;-1.09;98.67
84528;BME280;74768;51.152;6.196;2024-01-27T04:43:45;102907.03;;;-1.09;98.75
84528;BME280;74768;51.152;6.196;2024-01-27T04:46:11;102907.00;;;-1.10;98.55
84528;BME280;74768;51.152;6.196;2024-01-27T04:48:40;102905.03;;;-1.16;99.55
84528;BME280;74768;51.152;6.196;2024-01-27T04:51:05;102903.22;;;-1.19;99.07
84528;BME280;74768;51.152;6.196;2024-01-27T04:53:30;102899.16;;;-1.12;99.37
84528;BME280;74768;51.152;6.196;2024-01-27T04:55:55;102905.97;;;-1.14;98.87
84528;BME280;74768;51.152;6.196;2024-01-27T04:58:21;102906.78;;;-1.15;99.12
84528;BME280;74768;51.152;6.196;2024-01-27T05:00:46;102908.38;;;-1.19;98.80
84528;BME280;74768;51.152;6.196;2024-01-27T05:03:11;102906.69;;;-1.18;99.42
84528;BME280;74768;51.152;6.196;2024-01-27T05:05:41;102904.78;;;-1.22;99.06
84528;BME280;74768;51.152;6.196;2024-01-27T05:08:07;102899.66;;;-1.21;99.28
84528;BME280;74768;51.152;6.196;2024-01-27T05:10:32;102900.84;;;-1.33;99.18
84528;BME280;74768;51.152;6.196;2024-01-27T05:12:58;102902.75;;;-1.29;99.68
84528;BME280;74768;51.152;6.196;2024-01-27T05:15:24;102906.94;;;-1.33;98.87
84528;BME280;74768;51.152;6.196;2024-01-27T05:17:50;102907.84;;;-1.31;99.33
84528;BME280;74768;51.152;6.196;2024-01-27T05:20:15;102903.38;;;-1.35;98.69
84528;BME280;74768;51.152;6.196;2024-01-27T05:22:40;102907.59;;;-1.37;98.86
84528;BME280;74768;51.152;6.196;2024-01-27T05:25:06;102900.59;;;-1.39;99.16
84528;BME280;74768;51.152;6.196;2024-01-27T05:27:31;102900.72;;;-1.36;98.80
84528;BME280;74768;51.152;6.196;2024-01-27T05:29:57;102903.94;;;-1.42;99.87
84528;BME280;74768;51.152;6.196;2024-01-27T05:32:22;102904.00;;;-1.40;98.93
84528;BME280;74768;51.152;6.196;2024-01-27T05:34:47;102903.22;;;-1.38;99.59
84528;BME280;74768;51.152;6.196;2024-01-27T05:37:13;102908.16;;;-1.44;98.47
84528;BME280;74768;51.152;6.196;2024-01-27T05:39:38;102901.09;;;-1.48;99.52
84528;BME280;74768;51.152;6.196;2024-01-27T05:42:04;102895.03;;;-1.48;99.62
84528;BME280;74768;51.152;6.196;2024-01-27T05:44:29;102896.47;;;-1.55;99.10
84528;BME280;74768;51.152;6.196;2024-01-27T05:46:54;102906.94;;;-1.52;98.98
84528;BME280;74768;51.152;6.196;2024-01-27T05:49:20;102907.75;;;-1.53;99.67
84528;BME280;74768;51.152;6.196;2024-01-27T05:51:45;102898.91;;;-1.58;99.19
84528;BME280;74768;51.152;6.196;2024-01-27T05:54:10;102908.25;;;-1.62;99.73
84528;BME280;74768;51.152;6.196;2024-01-27T05:56:39;102903.19;;;-1.59;99.15
84528;BME280;74768;51.152;6.196;2024-01-27T05:59:05;102906.19;;;-1.49;99.33
84528;BME280;74768;51.152;6.196;2024-01-27T06:01:30;102906.94;;;-1.52;99.51
84528;BME280;74768;51.152;6.196;2024-01-27T06:03:55;102910.31;;;-1.54;99.30
84528;BME280;74768;51.152;6.196;2024-01-27T06:06:21;102907.41;;;-1.61;99.60
84528;BME280;74768;51.152;6.196;2024-01-27T06:08:46;102918.41;;;-1.66;99.41
84528;BME280;74768;51.152;6.196;2024-01-27T06:11:11;102912.22;;;-1.70;100.00
84528;BME280;74768;51.152;6.196;2024-01-27T06:13:37;102908.31;;;-1.60;99.86
84528;BME280;74768;51.152;6.196;2024-01-27T06:16:09;102923.56;;;-1.66;99.17
84528;BME280;74768;51.152;6.196;2024-01-27T06:18:34;102916.16;;;-1.59;99.52
84528;BME280;74768;51.152;6.196;2024-01-27T06:21:01;102917.28;;;-1.52;99.50
84528;BME280;74768;51.152;6.196;2024-01-27T06:23:26;102915.25;;;-1.59;99.18
84528;BME280;74768;51.152;6.196;2024-01-27T06:25:52;102924.69;;;-1.61;99.37
84528;BME280;74768;51.152;6.196;2024-01-27T06:28:17;102921.69;;;-1.70;99.23
84528;BME280;74768;51.152;6.196;2024-01-27T06:30:42;102932.03;;;-1.70;99.30
84528;BME280;74768;51.152;6.196;2024-01-27T06:33:08;102928.47;;;-1.72;99.87
84528;BME280;74768;51.152;6.196;2024-01-27T06:35:33;102935.50;;;-1.70;99.04
84528;BME280;74768;51.152;6.196;2024-01-27T06:37:58;102927.94;;;-1.65;99.82
84528;BME280;74768;51.152;6.196;2024-01-27T06:40:24;102930.25;;;-1.71;100.00
84528;BME280;74768;51.152;6.196;2024-01-27T06:42:49;102926.09;;;-1.68;99.61
84528;BME280;74768;51.152;6.196;2024-01-27T06:45:14;102928.41;;;-1.74;99.35
84528;BME280;74768;51.152;6.196;2024-01-27T06:47:40;102918.84;;;-1.76;99.12
84528;BME280;74768;51.152;6.196;2024-01-27T06:50:05;102924.13;;;-1.73;100.00
84528;BME280;74768;51.152;6.196;2024-01-27T06:52:31;102934.28;;;-1.78;99.26
84528;BME280;74768;51.152;6.196;2024-01-27T06:54:56;102928.22;;;-1.78;99.64
84528;BME280;74768;51.152;6.196;2024-01-27T06:57:23;102923.31;;;-1.72;99.85
84528;BME280;74768;51.152;6.196;2024-01-27T06:59:50;102925.00;;;-1.73;99.62
84528;BME280;74768;51.152;6.196;2024-01-27T07:02:24;102915.47;;;-1.74;100.00
84528;BME280;74768;51.152;6.196;2024-01-27T07:04:51;102915.47;;;-1.74;100.00
84528;BME280;74768;51.152;6.196;2024-01-27T07:07:16;102917.16;;;-1.74;100.00
84528;BME280;74768;51.152;6.196;2024-01-27T07:09:41;102923.94;;;-1.78;100.00
84528;BME280;74768;51.152;6.196;2024-01-27T07:12:07;102925.56;;;-1.80;99.94
84528;BME280;74768;51.152;6.196;2024-01-27T07:14:34;102917.94;;;-1.77;100.00
84528;BME280;74768;51.152;6.196;2024-01-27T07:16:59;102937.88;;;-1.74;100.00
84528;BME280;74768;51.152;6.196;2024-01-27T07:19:24;102936.78;;;-1.60;100.00
84528;BME280;74768;51.152;6.196;2024-01-27T07:21:50;102940.06;;;-1.64;99.74
84528;BME280;74768;51.152;6.196;2024-01-27T07:24:15;102951.22;;;-1.65;99.85
84528;BME280;74768;51.152;6.196;2024-01-27T07:26:40;102946.94;;;-1.65;99.90
84528;BME280;74768;51.152;6.196;2024-01-27T07:29:07;102955.78;;;-1.60;99.22
84528;BME280;74768;51.152;6.196;2024-01-27T07:31:33;102950.84;;;-1.55;99.67
84528;BME280;74768;51.152;6.196;2024-01-27T07:33:58;102963.91;;;-1.52;100.00
84528;BME280;74768;51.152;6.196;2024-01-27T07:36:23;102962.41;;;-1.47;99.83
84528;BME280;74768;51.152;6.196;2024-01-27T07:38:50;102958.88;;;-1.49;100.00
84528;BME280;74768;51.152;6.196;2024-01-27T07:41:15;102958.88;;;-1.49;100.00
84528;BME280;74768;51.152;6.196;2024-01-27T07:43:41;102964.03;;;-1.49;99.73
84528;BME280;74768;51.152;6.196;2024-01-27T07:46:07;102965.13;;;-1.44;100.00
84528;BME280;74768;51.152;6.196;2024-01-27T07:48:32;102974.59;;;-1.44;99.95
84528;BME280;74768;51.152;6.196;2024-01-27T07:50:57;102979.84;;;-1.43;100.00
84528;BME280;74768;51.152;6.196;2024-01-27T07:53:22;102969.63;;;-1.40;99.83
84528;BME280;74768;51.152;6.196;2024-01-27T07:55:48;102977.66;;;-1.34;99.99
84528;BME280;74768;51.152;6.196;2024-01-27T07:58:13;102977.78;;;-1.31;100.00
84528;BME280;74768;51.152;6.196;2024-01-27T08:00:38;102981.53;;;-1.24;100.00
84528;BME280;74768;51.152;6.196;2024-01-27T08:03:04;102987.03;;;-1.17;100.00
84528;BME280;74768;51.152;6.196;2024-01-27T08:05:30;102983.88;;;-1.09;100.00
84528;BME280;74768;51.152;6.196;2024-01-27T08:07:55;102985.81;;;-1.05;100.00
84528;BME280;74768;51.152;6.196;2024-01-27T08:10:22;102986.88;;;-1.00;100.00
84528;BME280;74768;51.152;6.196;2024-01-27T08:12:47;102989.22;;;-0.86;100.00
84528;BME280;74768;51.152;6.196;2024-01-27T08:15:13;102996.19;;;-0.85;100.00
84528;BME280;74768;51.152;6.196;2024-01-27T08:17:38;102983.31;;;-0.83;100.00
84528;BME280;74768;51.152;6.196;2024-01-27T08:20:04;102990.56;;;-0.74;100.00
84528;BME280;74768;51.152;6.196;2024-01-27T08:22:29;102985.56;;;-0.70;100.00
84528;BME280;74768;51.152;6.196;2024-01-27T08:24:54;102990.91;;;-0.67;100.00
84528;BME280;74768;51.152;6.196;2024-01-27T08:27:20;102982.41;;;-0.63;100.00
84528;BME280;74768;51.152;6.196;2024-01-27T08:29:45;102980.19;;;-0.54;100.00
84528;BME280;74768;51.152;6.196;2024-01-27T08:32:10;102988.47;;;-0.42;100.00
84528;BME280;74768;51.152;6.196;2024-01-27T08:34:36;102973.84;;;-0.40;100.00
84528;BME280;74768;51.152;6.196;2024-01-27T08:37:01;102977.63;;;-0.31;100.00
84528;BME280;74768;51.152;6.196;2024-01-27T08:39:27;102984.59;;;-0.30;100.00
84528;BME280;74768;51.152;6.196;2024-01-27T08:41:52;102977.81;;;-0.27;100.00
84528;BME280;74768;51.152;6.196;2024-01-27T08:44:18;102973.63;;;-0.23;100.00
84528;BME280;74768;51.152;6.196;2024-01-27T08:46:43;102978.19;;;-0.18;100.00
84528;BME280;74768;51.152;6.196;2024-01-27T08:49:08;102978.53;;;-0.09;100.00
84528;BME280;74768;51.152;6.196;2024-01-27T08:51:34;102968.84;;;0.10;100.00
84528;BME280;74768;51.152;6.196;2024-01-27T08:53:59;102969.19;;;0.19;100.00
84528;BME280;74768;51.152;6.196;2024-01-27T08:56:24;102976.03;;;0.17;100.00
84528;BME280;74768;51.152;6.196;2024-01-27T08:58:50;102975.38;;;0.22;100.00
84528;BME280;74768;51.152;6.196;2024-01-27T09:01:16;102970.31;;;0.25;100.00
84528;BME280;74768;51.152;6.196;2024-01-27T09:03:41;102957.44;;;0.28;100.00
84528;BME280;74768;51.152;6.196;2024-01-27T09:06:07;102958.63;;;0.36;100.00
84528;BME280;74768;51.152;6.196;2024-01-27T09:08:35;102966.72;;;0.46;100.00
84528;BME280;74768;51.152;6.196;2024-01-27T09:11:02;102971.50;;;0.57;100.00
84528;BME280;74768;51.152;6.196;2024-01-27T09:13:27;102970.09;;;0.67;100.00
84528;BME280;74768;51.152;6.196;2024-01-27T09:15:52;102967.25;;;0.85;100.00
84528;BME280;74768;51.152;6.196;2024-01-27T09:18:18;102960.50;;;0.90;100.00
84528;BME280;74768;51.152;6.196;2024-01-27T09:20:43;102965.00;;;0.94;100.00
84528;BME280;74768;51.152;6.196;2024-01-27T09:23:08;102966.28;;;1.06;100.00
84528;BME280;74768;51.152;6.196;2024-01-27T09:25:34;102964.88;;;1.16;100.00
84528;BME280;74768;51.152;6.196;2024-01-27T09:27:59;102975.63;;;1.27;100.00
84528;BME280;74768;51.152;6.196;2024-01-27T09:30:26;102983.78;;;1.37;100.00
84528;BME280;74768;51.152;6.196;2024-01-27T09:32:52;102984.06;;;1.45;100.00
84528;BME280;74768;51.152;6.196;2024-01-27T09:35:17;102985.97;;;1.50;100.00
84528;BME280;74768;51.152;6.196;2024-01-27T09:37:42;102984.44;;;1.57;100.00
84528;BME280;74768;51.152;6.196;2024-01-27T09:40:08;102983.78;;;1.64;100.00
84528;BME280;74768;51.152;6.196;2024-01-27T09:42:34;102978.88;;;1.73;100.00
84528;BME280;74768;51.152;6.196;2024-01-27T09:45:04;102975.53;;;1.77;100.00
84528;BME280;74768;51.152;6.196;2024-01-27T09:47:30;102975.69;;;1.82;100.00
84528;BME280;74768;51.152;6.196;2024-01-27T09:49:55;102976.88;;;1.93;100.00
84528;BME280;74768;51.152;6.196;2024-01-27T09:52:21;102978.13;;;2.04;99.44
84528;BME280;74768;51.152;6.196;2024-01-27T09:54:46;102979.19;;;2.12;99.35
84528;BME280;74768;51.152;6.196;2024-01-27T09:57:12;102972.44;;;2.17;99.04
84528;BME280;74768;51.152;6.196;2024-01-27T09:59:40;102979.63;;;2.26;99.13
84528;BME280;74768;51.152;6.196;2024-01-27T10:02:11;102988.63;;;2.37;98.45
84528;BME280;74768;51.152;6.196;2024-01-27T10:04:38;102995.56;;;2.37;98.14
84528;BME280;74768;51.152;6.196;2024-01-27T10:07:05;102990.28;;;2.35;99.11
84528;BME280;74768;51.152;6.196;2024-01-27T10:09:31;102993.97;;;2.42;98.67
84528;BME280;74768;51.152;6.196;2024-01-27T10:11:56;102987.63;;;2.63;97.51
84528;BME280;74768;51.152;6.196;2024-01-27T10:14:22;102990.34;;;2.66;98.30
84528;BME280;74768;51.152;6.196;2024-01-27T10:16:48;102987.69;;;2.65;98.43
84528;BME280;74768;51.152;6.196;2024-01-27T10:19:19;102986.06;;;2.68;98.57
84528;BME280;74768;51.152;6.196;2024-01-27T10:21:45;102982.63;;;2.71;99.02
84528;BME280;74768;51.152;6.196;2024-01-27T10:24:11;102991.47;;;2.76;99.21
84528;BME280;74768;51.152;6.196;2024-01-27T10:26:37;102992.38;;;2.78;98.67
84528;BME280;74768;51.152;6.196;2024-01-27T10:29:02;102996.19;;;2.89;98.36
84528;BME280;74768;51.152;6.196;2024-01-27T10:31:29;102996.44;;;2.98;98.57
84528;BME280;74768;51.152;6.196;2024-01-27T10:33:55;103002.13;;;3.17;97.81
84528;BME280;74768;51.152;6.196;2024-01-27T10:36:27;102998.78;;;3.21;97.78
84528;BME280;74768;51.152;6.196;2024-01-27T10:39:02;102988.69;;;3.34;96.35
84528;BME280;74768;51.152;6.196;2024-01-27T10:41:39;102982.22;;;3.55;95.58
84528;BME280;74768;51.152;6.196;2024-01-27T10:44:06;102984.06;;;3.60;95.66
84528;BME280;74768;51.152;6.196;2024-01-27T10:46:32;102979.13;;;3.71;94.63
84528;BME280;74768;51.152;6.196;2024-01-27T10:48:58;102993.13;;;3.74;94.63
84528;BME280;74768;51.152;6.196;2024-01-27T10:51:31;102992.22;;;3.74;95.36
84528;BME280;74768;51.152;6.196;2024-01-27T10:54:02;102979.88;;;3.65;94.88
84528;BME280;74768;51.152;6.196;2024-01-27T10:56:31;102968.63;;;3.69;93.74
84528;BME280;74768;51.152;6.196;2024-01-27T10:58:57;102970.34;;;3.69;94.75
84528;BME280;74768;51.152;6.196;2024-01-27T11:01:24;102977.41;;;3.73;95.67
84528;BME280;74768;51.152;6.196;2024-01-27T11:03:49;102968.78;;;3.75;93.52
84528;BME280;74768;51.152;6.196;2024-01-27T11:06:18;102970.72;;;3.84;92.75
84528;BME280;74768;51.152;6.196;2024-01-27T11:08:45;102984.00;;;3.95;94.46
84528;BME280;74768;51.152;6.196;2024-01-27T11:11:11;102983.31;;;4.02;92.84
84528;BME280;74768;51.152;6.196;2024-01-27T11:13:37;102984.53;;;4.19;90.29
84528;BME280;74768;51.152;6.196;2024-01-27T11:16:03;102985.50;;;4.22;91.89
84528;BME280;74768;51.152;6.196;2024-01-27T11:18:29;102982.25;;;4.34;90.70
84528;BME280;74768;51.152;6.196;2024-01-27T11:20:55;102984.03;;;4.35;91.34
84528;BME280;74768;51.152;6.196;2024-01-27T11:23:31;102974.63;;;4.43;90.36
84528;BME280;74768;51.152;6.196;2024-01-27T11:26:05;102970.97;;;4.35;92.04
84528;BME280;74768;51.152;6.196;2024-01-27T11:28:30;102977.16;;;4.40;89.96
84528;BME280;74768;51.152;6.196;2024-01-27T11:30:56;102969.53;;;4.51;89.16
84528;BME280;74768;51.152;6.196;2024-01-27T11:33:24;102966.28;;;4.62;87.88
84528;BME280;74768;51.152;6.196;2024-01-27T11:36:03;102977.72;;;4.67;90.16
84528;BME280;74768;51.152;6.196;2024-01-27T11:38:30;102969.00;;;4.67;90.03
84528;BME280;74768;51.152;6.196;2024-01-27T11:40:56;102966.28;;;4.62;90.74
84528;BME280;74768;51.152;6.196;2024-01-27T11:43:21;102968.06;;;4.65;90.02
84528;BME280;74768;51.152;6.196;2024-01-27T11:46:00;102958.56;;;4.70;89.52
84528;BME280;74768;51.152;6.196;2024-01-27T11:48:26;102952.56;;;4.76;90.30
84528;BME280;74768;51.152;6.196;2024-01-27T11:51:20;102951.97;;;4.89;86.90
84528;BME280;74768;51.152;6.196;2024-01-27T11:53:45;102949.75;;;5.13;87.10
84528;BME280;74768;51.152;6.196;2024-01-27T11:56:12;102944.88;;;5.33;83.59
84528;BME280;74768;51.152;6.196;2024-01-27T11:58:37;102946.75;;;5.40;87.77
84528;BME280;74768;51.152;6.196;2024-01-27T12:01:03;102941.31;;;5.29;87.79
84528;BME280;74768;51.152;6.196;2024-01-27T12:03:29;102947.47;;;5.31;83.74
84528;BME280;74768;51.152;6.196;2024-01-27T12:05:55;102947.63;;;5.42;80.80
84528;BME280;74768;51.152;6.196;2024-01-27T12:08:20;102939.22;;;5.61;79.17
84528;BME280;74768;51.152;6.196;2024-01-27T12:10:46;102937.47;;;5.63;77.91
84528;BME280;74768;51.152;6.196;2024-01-27T12:13:11;102948.00;;;5.66;78.20
84528;BME280;74768;51.152;6.196;2024-01-27T12:15:36;102938.31;;;5.61;77.86
84528;BME280;74768;51.152;6.196;2024-01-27T12:18:04;102932.22;;;5.62;79.86
84528;BME280;74768;51.152;6.196;2024-01-27T12:20:30;102937.41;;;5.59;80.29
84528;BME280;74768;51.152;6.196;2024-01-27T12:23:07;102938.25;;;5.56;81.50
84528;BME280;74768;51.152;6.196;2024-01-27T12:25:33;102926.81;;;5.51;84.51
84528;BME280;74768;51.152;6.196;2024-01-27T12:28:17;102921.50;;;5.45;86.46
84528;BME280;74768;51.152;6.196;2024-01-27T12:30:43;102933.63;;;5.41;86.06
84528;BME280;74768;51.152;6.196;2024-01-27T12:33:09;102927.53;;;5.41;82.92
84528;BME280;74768;51.152;6.196;2024-01-27T12:35:37;102927.66;;;5.47;85.60
84528;BME280;74768;51.152;6.196;2024-01-27T12:38:02;102933.78;;;5.51;81.80
84528;BME280;74768;51.152;6.196;2024-01-27T12:40:28;102933.09;;;5.61;86.80
84528;BME280;74768;51.152;6.196;2024-01-27T12:42:54;102922.53;;;5.55;86.37
84528;BME280;74768;51.152;6.196;2024-01-27T12:45:19;102914.75;;;5.61;86.89
84528;BME280;74768;51.152;6.196;2024-01-27T12:47:44;102906.91;;;5.62;85.01